Погода Калмыковкана неделю

Ростовская область, Россия

21 - 27 мая
  • 21мая
    Сегодня
    +12°
    +26°
    Облачно с прояснениями
    ВремяПогодаТемператураВлажностьДавлениеВетер, м/сВероятность осадков
    00:00Ясно и безоблачно+13°C54 %754 мм1.1 м/с2 %
    03:00Ясно и безоблачно+10°C65 %754 мм0.9 м/с2 %
    06:00Практически безоблачно+13°C65 %755 мм0.7 м/с2 %
    09:00Ясно и безоблачно+21°C44 %756 мм1.5 м/с2 %
    12:00Облачно с прояснениями+25°C28 %756 мм1.6 м/с2 %
    15:00Облачно с прояснениями+26°C27 %755 мм1.5 м/с2 %
    18:00Облачно с прояснениями+25°C30 %754 мм1.9 м/с2 %
    21:00Практически безоблачно+17°C48 %755 мм0.8 м/с2 %
  • 22мая
    Среда
    +11°
    +28°
    Практически безоблачно
    ВремяПогодаТемператураВлажностьДавлениеВетер, м/сВероятность осадков
    00:00Ясно и безоблачно+15°C54 %754 мм0.7 м/с2 %
    03:00Ясно и безоблачно+13°C58 %754 мм0.6 м/с2 %
    06:00Небольшая облачность+15°C56 %755 мм0.8 м/с2 %
    09:00Ясно и безоблачно+23°C34 %755 мм1.9 м/с2 %
    12:00Практически безоблачно+27°C25 %755 мм2.5 м/с2 %
    15:00Практически безоблачно+28°C24 %754 мм2.3 м/с2 %
    18:00Ясно и безоблачно+26°C25 %753 мм2.4 м/с2 %
    21:00Ясно и безоблачно+18°C43 %753 мм2.5 м/с2 %
  • 23мая
    Четверг
    +10°
    +29°
    Практически безоблачно
    ВремяПогодаТемператураВлажностьДавлениеВетер, м/сВероятность осадков
    00:00Ясно и безоблачно+15°C49 %753 мм2.0 м/с2 %
    03:00Ясно и безоблачно+12°C56 %752 мм1.0 м/с2 %
    06:00Ясно и безоблачно+14°C60 %753 мм1.7 м/с2 %
    09:00Ясно и безоблачно+24°C35 %753 мм2.5 м/с2 %
    12:00Ясно и безоблачно+28°C25 %753 мм3.0 м/с2 %
    15:00Практически безоблачно+28°C25 %752 мм3.3 м/с14 %
    18:00Небольшая облачность+23°C36 %753 мм5.6 м/с24 %
    21:00Ясно и безоблачно+18°C52 %754 мм3.2 м/с2 %
  • 24мая
    Пятница
    +7°
    +22°
    Ясно и безоблачно
    ВремяПогодаТемператураВлажностьДавлениеВетер, м/сВероятность осадков
    00:00Практически безоблачно+14°C68 %755 мм3.7 м/с2 %
    03:00Ясно и безоблачно+12°C70 %756 мм4.5 м/с2 %
    06:00Ясно и безоблачно+12°C49 %757 мм4.3 м/с2 %
    09:00Ясно и безоблачно+16°C35 %759 мм5.8 м/с2 %
    12:00Ясно и безоблачно+20°C31 %759 мм5.9 м/с2 %
    15:00Ясно и безоблачно+22°C23 %759 мм6.3 м/с2 %
    18:00Ясно и безоблачно+20°C20 %759 мм5.8 м/с2 %
    21:00Ясно и безоблачно+14°C25 %760 мм4.4 м/с2 %
  • 25мая
    Суббота
    +8°
    +22°
    Ясно и безоблачно
    ВремяПогодаТемператураВлажностьДавлениеВетер, м/сВероятность осадков
    00:00Ясно и безоблачно+11°C29 %761 мм4.2 м/с2 %
    03:00Ясно и безоблачно+8°C35 %762 мм3.7 м/с2 %
    06:00Ясно и безоблачно+9°C40 %762 мм3.4 м/с2 %
    09:00Ясно и безоблачно+15°C29 %763 мм5.6 м/с2 %
    12:00Ясно и безоблачно+19°C23 %762 мм5.8 м/с2 %
    15:00Ясно и безоблачно+22°C23 %761 мм6.0 м/с2 %
    18:00Ясно и безоблачно+21°C23 %760 мм5.0 м/с2 %
    21:00Облачно с прояснениями+15°C30 %760 мм3.0 м/с2 %
Мы используем cookies
Соглашаюсь